sensor_id;sensor_type;location;lat;lon;timestamp;pressure;altitude;pressure_sealevel;temperature;humidity
22241;BME280;11289;52.524;13.694;2022-10-31T00:00:47;101252.03;;;11.07;77.90
22241;BME280;11289;52.524;13.694;2022-10-31T00:03:12;101243.53;;;11.04;78.03
22241;BME280;11289;52.524;13.694;2022-10-31T00:05:43;101253.47;;;11.05;77.89
22241;BME280;11289;52.524;13.694;2022-10-31T00:08:09;101248.06;;;11.00;77.64
22241;BME280;11289;52.524;13.694;2022-10-31T00:10:40;101263.91;;;10.99;77.61
22241;BME280;11289;52.524;13.694;2022-10-31T00:13:06;101269.78;;;10.97;77.74
22241;BME280;11289;52.524;13.694;2022-10-31T00:15:36;101256.53;;;10.94;77.51
22241;BME280;11289;52.524;13.694;2022-10-31T00:18:03;101251.59;;;10.91;77.77
22241;BME280;11289;52.524;13.694;2022-10-31T00:20:29;101264.69;;;10.91;77.49
22241;BME280;11289;52.524;13.694;2022-10-31T00:22:58;101256.16;;;10.87;77.62
22241;BME280;11289;52.524;13.694;2022-10-31T00:25:23;101243.53;;;10.81;77.71
22241;BME280;11289;52.524;13.694;2022-10-31T00:27:49;101232.38;;;10.72;77.62
22241;BME280;11289;52.524;13.694;2022-10-31T00:30:14;101236.59;;;10.70;77.82
22241;BME280;11289;52.524;13.694;2022-10-31T00:32:39;101238.75;;;10.73;77.68
22241;BME280;11289;52.524;13.694;2022-10-31T00:35:05;101252.13;;;10.71;77.63
22241;BME280;11289;52.524;13.694;2022-10-31T00:37:30;101243.59;;;10.67;77.81
22241;BME280;11289;52.524;13.694;2022-10-31T00:39:56;101239.63;;;10.59;77.77
22241;BME280;11289;52.524;13.694;2022-10-31T00:42:21;101247.66;;;10.61;77.90
22241;BME280;11289;52.524;13.694;2022-10-31T00:44:47;101267.09;;;10.61;77.55
22241;BME280;11289;52.524;13.694;2022-10-31T00:47:12;101263.28;;;10.57;77.96
22241;BME280;11289;52.524;13.694;2022-10-31T00:49:37;101269.38;;;10.59;77.94
22241;BME280;11289;52.524;13.694;2022-10-31T00:52:03;101265.25;;;10.56;77.74
22241;BME280;11289;52.524;13.694;2022-10-31T00:54:28;101266.22;;;10.52;77.85
22241;BME280;11289;52.524;13.694;2022-10-31T00:56:56;101246.31;;;10.36;77.68
22241;BME280;11289;52.524;13.694;2022-10-31T00:59:21;101264.88;;;10.49;77.57
22241;BME280;11289;52.524;13.694;2022-10-31T01:01:47;101280.72;;;10.49;77.63
22241;BME280;11289;52.524;13.694;2022-10-31T01:04:12;101268.06;;;10.42;77.45
22241;BME280;11289;52.524;13.694;2022-10-31T01:06:37;101274.47;;;10.43;77.57
22241;BME280;11289;52.524;13.694;2022-10-31T01:09:03;101270.69;;;10.39;77.95
22241;BME280;11289;52.524;13.694;2022-10-31T01:11:28;101262.47;;;10.34;77.73
22241;BME280;11289;52.524;13.694;2022-10-31T01:13:54;101273.78;;;10.37;77.66
22241;BME280;11289;52.524;13.694;2022-10-31T01:16:23;101265.50;;;10.32;77.46
22241;BME280;11289;52.524;13.694;2022-10-31T01:18:49;101266.47;;;10.27;77.69
22241;BME280;11289;52.524;13.694;2022-10-31T01:21:17;101260.22;;;10.22;77.42
22241;BME280;11289;52.524;13.694;2022-10-31T01:23:43;101274.91;;;10.22;77.47
22241;BME280;11289;52.524;13.694;2022-10-31T01:28:42;101271.22;;;10.13;77.60
22241;BME280;11289;52.524;13.694;2022-10-31T01:31:08;101286.31;;;10.21;77.87
22241;BME280;11289;52.524;13.694;2022-10-31T01:33:35;101278.22;;;10.10;77.70
22241;BME280;11289;52.524;13.694;2022-10-31T01:36:01;101287.78;;;10.18;77.88
22241;BME280;11289;52.524;13.694;2022-10-31T01:38:35;101280.50;;;10.08;77.79
22241;BME280;11289;52.524;13.694;2022-10-31T01:41:00;101280.50;;;10.08;77.79
22241;BME280;11289;52.524;13.694;2022-10-31T01:43:42;101280.97;;;10.10;77.94
22241;BME280;11289;52.524;13.694;2022-10-31T01:46:07;101269.81;;;10.02;77.83
22241;BME280;11289;52.524;13.694;2022-10-31T01:48:32;101279.28;;;10.01;77.92
22241;BME280;11289;52.524;13.694;2022-10-31T01:50:58;101280.91;;;10.02;77.96
22241;BME280;11289;52.524;13.694;2022-10-31T01:53:23;101287.91;;;9.99;78.11
22241;BME280;11289;52.524;13.694;2022-10-31T01:55:49;101273.66;;;9.92;78.27
22241;BME280;11289;52.524;13.694;2022-10-31T01:58:20;101299.50;;;10.01;78.18
22241;BME280;11289;52.524;13.694;2022-10-31T02:00:50;101282.78;;;9.92;78.16
22241;BME280;11289;52.524;13.694;2022-10-31T02:03:18;101270.78;;;9.83;78.34
22241;BME280;11289;52.524;13.694;2022-10-31T02:05:45;101280.94;;;9.88;78.05
22241;BME280;11289;52.524;13.694;2022-10-31T02:08:30;101294.91;;;9.97;78.20
22241;BME280;11289;52.524;13.694;2022-10-31T02:10:58;101281.13;;;9.91;78.14
22241;BME280;11289;52.524;13.694;2022-10-31T02:13:25;101283.59;;;9.93;78.32
22241;BME280;11289;52.524;13.694;2022-10-31T02:15:56;101288.41;;;9.87;78.39
22241;BME280;11289;52.524;13.694;2022-10-31T02:18:23;101301.16;;;9.88;78.40
22241;BME280;11289;52.524;13.694;2022-10-31T02:26:43;101291.94;;;9.79;78.66
22241;BME280;11289;52.524;13.694;2022-10-31T02:37:51;101303.13;;;9.74;78.50
22241;BME280;11289;52.524;13.694;2022-10-31T02:40:28;101309.28;;;9.71;78.36
22241;BME280;11289;52.524;13.694;2022-10-31T02:43:05;101299.31;;;9.70;78.20
22241;BME280;11289;52.524;13.694;2022-10-31T02:45:47;101296.66;;;9.65;78.47
22241;BME280;11289;52.524;13.694;2022-10-31T02:48:19;101301.09;;;9.66;78.70
22241;BME280;11289;52.524;13.694;2022-10-31T02:50:51;101301.16;;;9.61;78.73
22241;BME280;11289;52.524;13.694;2022-10-31T02:53:17;101288.84;;;9.53;78.83
22241;BME280;11289;52.524;13.694;2022-10-31T02:56:06;101295.13;;;9.58;78.79
22241;BME280;11289;52.524;13.694;2022-10-31T02:58:37;101301.25;;;9.55;78.89
22241;BME280;11289;52.524;13.694;2022-10-31T03:01:26;101297.38;;;9.56;78.90
22241;BME280;11289;52.524;13.694;2022-10-31T03:07:10;101299.63;;;9.54;79.17
22241;BME280;11289;52.524;13.694;2022-10-31T03:12:39;101301.38;;;9.50;79.02
22241;BME280;11289;52.524;13.694;2022-10-31T03:18:09;101309.47;;;9.47;78.96
22241;BME280;11289;52.524;13.694;2022-10-31T03:20:46;101302.91;;;9.43;78.85
22241;BME280;11289;52.524;13.694;2022-10-31T03:23:15;101315.63;;;9.44;79.11
22241;BME280;11289;52.524;13.694;2022-10-31T03:25:43;101315.75;;;9.38;78.62
22241;BME280;11289;52.524;13.694;2022-10-31T03:28:11;101321.59;;;9.37;78.88
22241;BME280;11289;52.524;13.694;2022-10-31T03:30:41;101331.63;;;9.33;78.79
22241;BME280;11289;52.524;13.694;2022-10-31T03:33:12;101316.94;;;9.32;78.74
22241;BME280;11289;52.524;13.694;2022-10-31T03:35:44;101325.78;;;9.34;78.99
22241;BME280;11289;52.524;13.694;2022-10-31T03:38:11;101321.78;;;9.27;78.67
22241;BME280;11289;52.524;13.694;2022-10-31T03:40:38;101333.06;;;9.30;78.50
22241;BME280;11289;52.524;13.694;2022-10-31T03:43:10;101325.13;;;9.23;78.75
22241;BME280;11289;52.524;13.694;2022-10-31T03:45:40;101333.97;;;9.26;78.53
22241;BME280;11289;52.524;13.694;2022-10-31T03:48:07;101334.91;;;9.21;78.63
22241;BME280;11289;52.524;13.694;2022-10-31T03:50:40;101331.09;;;9.17;78.60
22241;BME280;11289;52.524;13.694;2022-10-31T03:53:16;101346.28;;;9.19;78.52
22241;BME280;11289;52.524;13.694;2022-10-31T03:55:54;101343.81;;;9.18;78.64
22241;BME280;11289;52.524;13.694;2022-10-31T03:58:27;101341.19;;;9.07;78.64
22241;BME280;11289;52.524;13.694;2022-10-31T04:00:55;101346.47;;;9.09;78.76
22241;BME280;11289;52.524;13.694;2022-10-31T04:03:30;101344.88;;;9.03;78.70
22241;BME280;11289;52.524;13.694;2022-10-31T04:06:01;101362.03;;;9.05;78.54
22241;BME280;11289;52.524;13.694;2022-10-31T04:08:30;101360.59;;;9.07;78.63
22241;BME280;11289;52.524;13.694;2022-10-31T04:10:59;101339.75;;;8.96;78.70
22241;BME280;11289;52.524;13.694;2022-10-31T04:13:31;101357.69;;;8.99;78.57
22241;BME280;11289;52.524;13.694;2022-10-31T04:15:59;101355.22;;;8.97;78.85
22241;BME280;11289;52.524;13.694;2022-10-31T04:18:25;101359.94;;;8.97;78.63
22241;BME280;11289;52.524;13.694;2022-10-31T04:21:01;101358.84;;;8.98;78.75
22241;BME280;11289;52.524;13.694;2022-10-31T04:23:27;101366.59;;;8.96;78.74
22241;BME280;11289;52.524;13.694;2022-10-31T04:25:53;101368.31;;;8.92;78.58
22241;BME280;11289;52.524;13.694;2022-10-31T04:28:18;101370.59;;;8.89;78.83
22241;BME280;11289;52.524;13.694;2022-10-31T04:30:44;101352.72;;;8.82;78.86
22241;BME280;11289;52.524;13.694;2022-10-31T04:33:09;101373.06;;;8.91;79.19
22241;BME280;11289;52.524;13.694;2022-10-31T04:35:35;101355.47;;;8.82;79.37
22241;BME280;11289;52.524;13.694;2022-10-31T04:38:00;101361.03;;;8.82;78.84
22241;BME280;11289;52.524;13.694;2022-10-31T04:40:26;101364.09;;;8.80;79.34
22241;BME280;11289;52.524;13.694;2022-10-31T04:42:51;101369.09;;;8.78;79.39
22241;BME280;11289;52.524;13.694;2022-10-31T04:45:16;101365.81;;;8.76;79.41
22241;BME280;11289;52.524;13.694;2022-10-31T04:47:42;101360.13;;;8.67;79.14
22241;BME280;11289;52.524;13.694;2022-10-31T04:50:08;101374.94;;;8.77;79.25
22241;BME280;11289;52.524;13.694;2022-10-31T04:52:39;101370.81;;;8.74;79.42
22241;BME280;11289;52.524;13.694;2022-10-31T04:55:05;101351.69;;;8.59;79.65
22241;BME280;11289;52.524;13.694;2022-10-31T04:57:30;101355.50;;;8.63;79.37
22241;BME280;11289;52.524;13.694;2022-10-31T04:59:55;101363.81;;;8.63;79.77
22241;BME280;11289;52.524;13.694;2022-10-31T05:02:21;101367.19;;;8.60;79.50
22241;BME280;11289;52.524;13.694;2022-10-31T05:04:46;101364.69;;;8.58;79.62
22241;BME280;11289;52.524;13.694;2022-10-31T05:07:12;101363.88;;;8.58;79.40
22241;BME280;11289;52.524;13.694;2022-10-31T05:09:37;101373.72;;;8.64;79.39
22241;BME280;11289;52.524;13.694;2022-10-31T05:12:03;101363.06;;;8.57;79.65
22241;BME280;11289;52.524;13.694;2022-10-31T05:14:28;101375.19;;;8.61;79.48
22241;BME280;11289;52.524;13.694;2022-10-31T05:16:53;101373.88;;;8.53;79.74
22241;BME280;11289;52.524;13.694;2022-10-31T05:19:19;101371.72;;;8.50;79.80
22241;BME280;11289;52.524;13.694;2022-10-31T05:21:44;101383.03;;;8.54;79.74
22241;BME280;11289;52.524;13.694;2022-10-31T05:24:10;101381.06;;;8.54;79.67
22241;BME280;11289;52.524;13.694;2022-10-31T05:26:35;101384.44;;;8.51;79.52
22241;BME280;11289;52.524;13.694;2022-10-31T05:29:00;101385.84;;;8.49;79.59
22241;BME280;11289;52.524;13.694;2022-10-31T05:31:26;101387.72;;;8.53;79.63
22241;BME280;11289;52.524;13.694;2022-10-31T05:33:51;101386.97;;;8.48;79.47
22241;BME280;11289;52.524;13.694;2022-10-31T05:36:16;101395.81;;;8.50;79.56
22241;BME280;11289;52.524;13.694;2022-10-31T05:38:43;101398.34;;;8.46;79.92
22241;BME280;11289;52.524;13.694;2022-10-31T05:41:08;101398.63;;;8.45;80.00
22241;BME280;11289;52.524;13.694;2022-10-31T05:43:34;101396.44;;;8.42;79.79
22241;BME280;11289;52.524;13.694;2022-10-31T05:46:00;101392.31;;;8.39;79.97
22241;BME280;11289;52.524;13.694;2022-10-31T05:48:25;101394.25;;;8.39;80.31
22241;BME280;11289;52.524;13.694;2022-10-31T05:50:51;101396.72;;;8.40;80.51
22241;BME280;11289;52.524;13.694;2022-10-31T05:53:17;101406.13;;;8.44;80.42
22241;BME280;11289;52.524;13.694;2022-10-31T05:55:42;101402.78;;;8.42;80.50
22241;BME280;11289;52.524;13.694;2022-10-31T05:58:09;101410.25;;;8.47;80.71
22241;BME280;11289;52.524;13.694;2022-10-31T06:00:35;101402.50;;;8.44;80.36
22241;BME280;11289;52.524;13.694;2022-10-31T06:03:06;101400.31;;;8.41;80.56
22241;BME280;11289;52.524;13.694;2022-10-31T06:05:32;101415.50;;;8.48;81.29
22241;BME280;11289;52.524;13.694;2022-10-31T06:07:57;101411.66;;;8.44;81.09
22241;BME280;11289;52.524;13.694;2022-10-31T06:10:24;101414.94;;;8.46;81.06
22241;BME280;11289;52.524;13.694;2022-10-31T06:12:49;101403.63;;;8.43;81.23
22241;BME280;11289;52.524;13.694;2022-10-31T06:15:15;101408.88;;;8.44;81.15
22241;BME280;11289;52.524;13.694;2022-10-31T06:17:41;101403.09;;;8.41;80.98
22241;BME280;11289;52.524;13.694;2022-10-31T06:20:07;101419.38;;;8.47;81.05
22241;BME280;11289;52.524;13.694;2022-10-31T06:22:32;101422.13;;;8.47;80.94
22241;BME280;11289;52.524;13.694;2022-10-31T06:24:58;101427.66;;;8.47;81.00
22241;BME280;11289;52.524;13.694;2022-10-31T06:27:23;101427.31;;;8.54;81.40
22241;BME280;11289;52.524;13.694;2022-10-31T06:29:49;101420.41;;;8.51;81.21
22241;BME280;11289;52.524;13.694;2022-10-31T06:32:14;101433.88;;;8.58;81.52
22241;BME280;11289;52.524;13.694;2022-10-31T06:34:40;101430.59;;;8.56;81.41
22241;BME280;11289;52.524;13.694;2022-10-31T06:37:12;101436.38;;;8.60;81.51
22241;BME280;11289;52.524;13.694;2022-10-31T06:39:38;101432.25;;;8.57;81.61
22241;BME280;11289;52.524;13.694;2022-10-31T06:42:04;101442.13;;;8.63;81.57
22241;BME280;11289;52.524;13.694;2022-10-31T06:44:30;101437.41;;;8.64;81.80
22241;BME280;11289;52.524;13.694;2022-10-31T06:46:55;101445.66;;;8.69;82.04
22241;BME280;11289;52.524;13.694;2022-10-31T06:49:21;101439.56;;;8.67;82.04
22241;BME280;11289;52.524;13.694;2022-10-31T06:51:50;101447.53;;;8.74;82.24
22241;BME280;11289;52.524;13.694;2022-10-31T06:54:16;101441.16;;;8.73;82.12
22241;BME280;11289;52.524;13.694;2022-10-31T06:56:41;101437.88;;;8.71;82.27
22241;BME280;11289;52.524;13.694;2022-10-31T06:59:07;101450.53;;;8.77;82.49
22241;BME280;11289;52.524;13.694;2022-10-31T07:01:32;101429.34;;;8.67;82.57
22241;BME280;11289;52.524;13.694;2022-10-31T07:03:58;101446.94;;;8.77;82.35
22241;BME280;11289;52.524;13.694;2022-10-31T07:06:23;101455.09;;;8.87;82.71
22241;BME280;11289;52.524;13.694;2022-10-31T07:08:48;101467.75;;;8.93;82.66
22241;BME280;11289;52.524;13.694;2022-10-31T07:11:14;101464.00;;;9.03;82.78
22241;BME280;11289;52.524;13.694;2022-10-31T07:13:39;101471.69;;;9.06;82.86
22241;BME280;11289;52.524;13.694;2022-10-31T07:16:05;101462.81;;;9.09;83.44
22241;BME280;11289;52.524;13.694;2022-10-31T07:18:37;101468.19;;;9.19;83.37
22241;BME280;11289;52.524;13.694;2022-10-31T07:21:02;101460.09;;;9.23;83.50
22241;BME280;11289;52.524;13.694;2022-10-31T07:23:28;101468.34;;;9.28;83.55
22241;BME280;11289;52.524;13.694;2022-10-31T07:25:57;101463.00;;;9.32;83.48
22241;BME280;11289;52.524;13.694;2022-10-31T07:28:23;101462.41;;;9.35;83.82
22241;BME280;11289;52.524;13.694;2022-10-31T07:30:53;101482.16;;;9.47;83.93
22241;BME280;11289;52.524;13.694;2022-10-31T07:33:19;101482.06;;;9.52;84.10
22241;BME280;11289;52.524;13.694;2022-10-31T07:35:44;101474.72;;;9.62;85.15
22241;BME280;11289;52.524;13.694;2022-10-31T07:38:11;101472.59;;;9.72;86.18
22241;BME280;11289;52.524;13.694;2022-10-31T07:40:37;101457.78;;;9.77;86.30
22241;BME280;11289;52.524;13.694;2022-10-31T07:43:03;101457.84;;;9.91;86.64
22241;BME280;11289;52.524;13.694;2022-10-31T07:45:28;101470.81;;;10.09;87.48
22241;BME280;11289;52.524;13.694;2022-10-31T07:47:54;101477.63;;;10.31;87.75
22241;BME280;11289;52.524;13.694;2022-10-31T07:50:22;101474.75;;;10.50;88.27
22241;BME280;11289;52.524;13.694;2022-10-31T07:52:48;101483.47;;;10.71;88.33
22241;BME280;11289;52.524;13.694;2022-10-31T07:55:14;101487.03;;;11.00;88.51
22241;BME280;11289;52.524;13.694;2022-10-31T07:57:39;101501.97;;;11.26;89.72
22241;BME280;11289;52.524;13.694;2022-10-31T08:00:07;101490.56;;;11.50;89.48
22241;BME280;11289;52.524;13.694;2022-10-31T08:02:34;101490.03;;;11.71;88.96
22241;BME280;11289;52.524;13.694;2022-10-31T08:04:59;101492.38;;;12.00;89.29
22241;BME280;11289;52.524;13.694;2022-10-31T08:07:27;101502.84;;;12.35;90.58
22241;BME280;11289;52.524;13.694;2022-10-31T08:09:54;101497.84;;;12.63;91.01
22241;BME280;11289;52.524;13.694;2022-10-31T08:12:19;101498.56;;;12.95;91.32
22241;BME280;11289;52.524;13.694;2022-10-31T08:14:45;101500.44;;;13.17;90.80
22241;BME280;11289;52.524;13.694;2022-10-31T08:17:11;101511.28;;;13.45;90.37
22241;BME280;11289;52.524;13.694;2022-10-31T08:19:36;101510.59;;;13.66;90.11
22241;BME280;11289;52.524;13.694;2022-10-31T08:22:01;101494.16;;;13.82;89.51
22241;BME280;11289;52.524;13.694;2022-10-31T08:24:27;101500.84;;;13.98;88.78
22241;BME280;11289;52.524;13.694;2022-10-31T08:26:52;101506.41;;;14.07;87.68
22241;BME280;11289;52.524;13.694;2022-10-31T08:29:18;101512.50;;;14.09;86.83
22241;BME280;11289;52.524;13.694;2022-10-31T08:31:43;101513.97;;;14.06;86.16
22241;BME280;11289;52.524;13.694;2022-10-31T08:34:08;101513.50;;;14.04;85.79
22241;BME280;11289;52.524;13.694;2022-10-31T08:36:34;101500.84;;;13.98;85.74
22241;BME280;11289;52.524;13.694;2022-10-31T08:39:00;101498.06;;;13.89;86.07
22241;BME280;11289;52.524;13.694;2022-10-31T08:41:25;101505.44;;;13.94;85.78
22241;BME280;11289;52.524;13.694;2022-10-31T08:43:50;101505.78;;;13.92;85.72
22241;BME280;11289;52.524;13.694;2022-10-31T08:46:16;101514.81;;;13.98;85.52
22241;BME280;11289;52.524;13.694;2022-10-31T08:48:42;101494.81;;;13.87;85.43
22241;BME280;11289;52.524;13.694;2022-10-31T08:51:08;101504.97;;;13.92;85.32
22241;BME280;11289;52.524;13.694;2022-10-31T08:53:35;101498.59;;;13.91;85.51
22241;BME280;11289;52.524;13.694;2022-10-31T08:56:00;101503.63;;;13.98;85.40
22241;BME280;11289;52.524;13.694;2022-10-31T08:58:26;101509.38;;;14.02;85.86
22241;BME280;11289;52.524;13.694;2022-10-31T09:00:53;101510.19;;;14.02;85.86
22241;BME280;11289;52.524;13.694;2022-10-31T09:03:23;101511.97;;;14.16;85.53
22241;BME280;11289;52.524;13.694;2022-10-31T09:05:50;101514.88;;;14.28;85.71
22241;BME280;11289;52.524;13.694;2022-10-31T09:08:16;101511.22;;;14.45;85.14
22241;BME280;11289;52.524;13.694;2022-10-31T09:10:42;101512.44;;;14.65;84.45
22241;BME280;11289;52.524;13.694;2022-10-31T09:13:19;101511.19;;;14.84;84.28
22241;BME280;11289;52.524;13.694;2022-10-31T09:15:47;101514.16;;;15.08;83.86
22241;BME280;11289;52.524;13.694;2022-10-31T09:18:15;101504.94;;;15.29;84.37
22241;BME280;11289;52.524;13.694;2022-10-31T09:20:42;101522.34;;;15.56;84.22
22241;BME280;11289;52.524;13.694;2022-10-31T09:23:13;101512.38;;;15.67;82.91
22241;BME280;11289;52.524;13.694;2022-10-31T09:25:39;101518.44;;;15.90;82.90
22241;BME280;11289;52.524;13.694;2022-10-31T09:28:06;101525.69;;;16.16;81.43
22241;BME280;11289;52.524;13.694;2022-10-31T09:30:33;101529.34;;;16.29;80.18
22241;BME280;11289;52.524;13.694;2022-10-31T09:33:13;101526.69;;;16.32;77.66
22241;BME280;11289;52.524;13.694;2022-10-31T09:35:39;101533.13;;;16.58;80.38
22241;BME280;11289;52.524;13.694;2022-10-31T09:38:10;101531.50;;;16.69;78.43
22241;BME280;11289;52.524;13.694;2022-10-31T09:40:47;101540.13;;;16.88;77.57
22241;BME280;11289;52.524;13.694;2022-10-31T09:51:35;101536.13;;;17.14;75.90
22241;BME280;11289;52.524;13.694;2022-10-31T09:54:10;101544.94;;;17.41;76.41
22241;BME280;11289;52.524;13.694;2022-10-31T09:56:37;101528.38;;;17.64;75.18
22241;BME280;11289;52.524;13.694;2022-10-31T09:59:06;101529.13;;;17.77;71.98
22241;BME280;11289;52.524;13.694;2022-10-31T10:04:50;101532.44;;;18.23;72.61
22241;BME280;11289;52.524;13.694;2022-10-31T10:13:04;101542.22;;;18.77;70.48
22241;BME280;11289;52.524;13.694;2022-10-31T10:18:33;101528.69;;;18.67;68.49
22241;BME280;11289;52.524;13.694;2022-10-31T10:21:25;101533.00;;;18.45;69.53
22241;BME280;11289;52.524;13.694;2022-10-31T10:24:21;101541.16;;;18.18;69.23
22241;BME280;11289;52.524;13.694;2022-10-31T10:27:03;101530.03;;;17.94;69.80
22241;BME280;11289;52.524;13.694;2022-10-31T10:29:39;101532.16;;;17.84;70.98
22241;BME280;11289;52.524;13.694;2022-10-31T10:32:17;101530.41;;;17.80;71.68
22241;BME280;11289;52.524;13.694;2022-10-31T10:34:49;101529.41;;;17.72;71.68
22241;BME280;11289;52.524;13.694;2022-10-31T10:37:30;101529.78;;;17.70;72.40
22241;BME280;11289;52.524;13.694;2022-10-31T10:40:11;101524.53;;;17.69;71.20
22241;BME280;11289;52.524;13.694;2022-10-31T10:42:39;101523.97;;;17.91;73.74
22241;BME280;11289;52.524;13.694;2022-10-31T10:45:23;101525.34;;;18.30;71.88
22241;BME280;11289;52.524;13.694;2022-10-31T10:48:15;101509.88;;;18.52;69.17
22241;BME280;11289;52.524;13.694;2022-10-31T10:50:46;101512.75;;;18.87;69.16
22241;BME280;11289;52.524;13.694;2022-10-31T10:53:40;101508.34;;;19.25;68.67
22241;BME280;11289;52.524;13.694;2022-10-31T10:59:20;101505.25;;;19.70;66.03
22241;BME280;11289;52.524;13.694;2022-10-31T11:01:49;101513.69;;;19.89;65.92
22241;BME280;11289;52.524;13.694;2022-10-31T11:04:28;101516.41;;;20.05;64.63
22241;BME280;11289;52.524;13.694;2022-10-31T11:07:07;101513.66;;;20.09;64.49
22241;BME280;11289;52.524;13.694;2022-10-31T11:09:34;101503.44;;;20.00;64.01
22241;BME280;11289;52.524;13.694;2022-10-31T11:12:07;101505.09;;;19.82;63.24
22241;BME280;11289;52.524;13.694;2022-10-31T11:14:42;101504.59;;;19.57;63.82
22241;BME280;11289;52.524;13.694;2022-10-31T11:17:20;101503.34;;;19.35;64.69
22241;BME280;11289;52.524;13.694;2022-10-31T11:19:47;101501.81;;;19.21;65.42
22241;BME280;11289;52.524;13.694;2022-10-31T11:22:17;101507.31;;;19.14;65.99
22241;BME280;11289;52.524;13.694;2022-10-31T11:24:45;101494.44;;;19.13;66.83
22241;BME280;11289;52.524;13.694;2022-10-31T11:27:19;101490.78;;;19.12;66.17
22241;BME280;11289;52.524;13.694;2022-10-31T11:29:45;101487.97;;;19.12;65.85
22241;BME280;11289;52.524;13.694;2022-10-31T11:32:22;101491.78;;;19.20;65.87
22241;BME280;11289;52.524;13.694;2022-10-31T11:34:58;101485.84;;;19.45;66.78
22241;BME280;11289;52.524;13.694;2022-10-31T11:37:31;101478.63;;;19.67;65.45
22241;BME280;11289;52.524;13.694;2022-10-31T11:40:05;101480.19;;;19.84;64.41
22241;BME280;11289;52.524;13.694;2022-10-31T11:42:39;101444.47;;;19.88;64.67
22241;BME280;11289;52.524;13.694;2022-10-31T11:45:15;101483.72;;;20.24;63.36
22241;BME280;11289;52.524;13.694;2022-10-31T11:47:47;101468.75;;;20.20;62.51
22241;BME280;11289;52.524;13.694;2022-10-31T11:50:19;101479.34;;;20.26;61.70
22241;BME280;11289;52.524;13.694;2022-10-31T11:52:45;101481.41;;;20.29;62.30
22241;BME280;11289;52.524;13.694;2022-10-31T11:57:47;101483.09;;;20.34;63.10
22241;BME280;11289;52.524;13.694;2022-10-31T12:00:22;101481.41;;;20.29;63.13
22241;BME280;11289;52.524;13.694;2022-10-31T12:02:49;101482.34;;;20.14;62.64
22241;BME280;11289;52.524;13.694;2022-10-31T12:05:25;101495.53;;;20.10;62.69
22241;BME280;11289;52.524;13.694;2022-10-31T12:07:54;101480.72;;;19.90;62.61
22241;BME280;11289;52.524;13.694;2022-10-31T12:10:21;101480.31;;;19.72;63.07
22241;BME280;11289;52.524;13.694;2022-10-31T12:15:36;101483.84;;;19.45;64.04
22241;BME280;11289;52.524;13.694;2022-10-31T12:29:14;101482.50;;;18.84;66.03
22241;BME280;11289;52.524;13.694;2022-10-31T12:32:23;101483.97;;;18.78;66.10
22241;BME280;11289;52.524;13.694;2022-10-31T12:35:54;101469.22;;;18.65;66.62
22241;BME280;11289;52.524;13.694;2022-10-31T12:44:09;101469.13;;;18.45;67.61
22241;BME280;11289;52.524;13.694;2022-10-31T12:52:22;101458.00;;;18.33;67.86
22241;BME280;11289;52.524;13.694;2022-10-31T12:55:25;101451.41;;;18.25;68.15
22241;BME280;11289;52.524;13.694;2022-10-31T12:58:02;101456.00;;;18.18;68.69
22241;BME280;11289;52.524;13.694;2022-10-31T13:00:31;101447.94;;;18.16;68.50
22241;BME280;11289;52.524;13.694;2022-10-31T13:03:19;101450.31;;;18.14;69.39
22241;BME280;11289;52.524;13.694;2022-10-31T13:05:50;101448.78;;;18.17;69.54
22241;BME280;11289;52.524;13.694;2022-10-31T13:08:29;101438.34;;;18.17;69.54
22241;BME280;11289;52.524;13.694;2022-10-31T13:11:35;101441.69;;;18.23;69.43
22241;BME280;11289;52.524;13.694;2022-10-31T13:17:04;101436.88;;;18.23;69.46
22241;BME280;11289;52.524;13.694;2022-10-31T13:19:31;101445.78;;;18.25;69.15
22241;BME280;11289;52.524;13.694;2022-10-31T13:22:16;101438.34;;;18.17;68.78
22241;BME280;11289;52.524;13.694;2022-10-31T13:24:54;101432.97;;;18.12;69.83
22241;BME280;11289;52.524;13.694;2022-10-31T13:27:24;101439.50;;;18.16;69.58
22241;BME280;11289;52.524;13.694;2022-10-31T13:30:04;101439.78;;;18.11;69.85
22241;BME280;11289;52.524;13.694;2022-10-31T13:38:41;101428.19;;;17.97;69.54
22241;BME280;11289;52.524;13.694;2022-10-31T13:48:57;101413.75;;;17.82;70.65
22241;BME280;11289;52.524;13.694;2022-10-31T13:51:29;101415.03;;;17.85;71.32
22241;BME280;11289;52.524;13.694;2022-10-31T13:56:23;101412.84;;;17.78;71.37
22241;BME280;11289;52.524;13.694;2022-10-31T13:59:02;101412.34;;;17.76;71.65
22241;BME280;11289;52.524;13.694;2022-10-31T14:01:28;101409.72;;;17.67;71.76
22241;BME280;11289;52.524;13.694;2022-10-31T14:04:07;101410.09;;;17.66;72.02
22241;BME280;11289;52.524;13.694;2022-10-31T14:06:58;101418.50;;;17.66;71.90
22241;BME280;11289;52.524;13.694;2022-10-31T14:09:33;101423.69;;;17.64;72.00
22241;BME280;11289;52.524;13.694;2022-10-31T14:12:06;101409.00;;;17.54;72.32
22241;BME280;11289;52.524;13.694;2022-10-31T14:14:39;101410.06;;;17.50;72.39
22241;BME280;11289;52.524;13.694;2022-10-31T14:17:05;101412.44;;;17.48;73.18
22241;BME280;11289;52.524;13.694;2022-10-31T14:19:31;101407.41;;;17.41;73.15
22241;BME280;11289;52.524;13.694;2022-10-31T14:21:56;101404.88;;;17.36;73.62
22241;BME280;11289;52.524;13.694;2022-10-31T14:29:44;101403.72;;;17.37;74.19
22241;BME280;11289;52.524;13.694;2022-10-31T14:45:21;101394.38;;;17.33;74.56
22241;BME280;11289;52.524;13.694;2022-10-31T14:50:41;101395.53;;;17.32;74.45
22241;BME280;11289;52.524;13.694;2022-10-31T14:53:35;101380.16;;;17.26;74.18
22241;BME280;11289;52.524;13.694;2022-10-31T14:56:02;101383.69;;;17.22;74.36